地図

経路データ

SID SEASON NUMBER BASIN SUBBASIN NAME ISO_TIME NATURE LAT LON WMO_WIND WMO_PRES WMO_AGENCY TRACK_TYPE DIST2LAND LANDFALL IFLAG USA_AGENCY USA_ATCF_ID USA_LAT USA_LON USA_RECORD USA_STATUS USA_WIND USA_PRES USA_SSHS USA_R34_NE USA_R34_SE USA_R34_SW USA_R34_NW USA_R50_NE USA_R50_SE USA_R50_SW USA_R50_NW USA_R64_NE USA_R64_SE USA_R64_SW USA_R64_NW USA_POCI USA_ROCI USA_RMW USA_EYE TOKYO_LAT TOKYO_LON TOKYO_GRADE TOKYO_WIND TOKYO_PRES TOKYO_R50_DIR TOKYO_R50_LONG TOKYO_R50_SHORT TOKYO_R30_DIR TOKYO_R30_LONG TOKYO_R30_SHORT TOKYO_LAND CMA_LAT CMA_LON CMA_CAT CMA_WIND CMA_PRES HKO_LAT HKO_LON HKO_CAT HKO_WIND HKO_PRES NEWDELHI_LAT NEWDELHI_LON NEWDELHI_GRADE NEWDELHI_WIND NEWDELHI_PRES NEWDELHI_CI NEWDELHI_DP NEWDELHI_POCI REUNION_LAT REUNION_LON REUNION_TYPE REUNION_WIND REUNION_PRES REUNION_TNUM REUNION_CI REUNION_RMW REUNION_R34_NE REUNION_R34_SE REUNION_R34_SW REUNION_R34_NW REUNION_R50_NE REUNION_R50_SE REUNION_R50_SW REUNION_R50_NW REUNION_R64_NE REUNION_R64_SE REUNION_R64_SW REUNION_R64_NW BOM_LAT BOM_LON BOM_TYPE BOM_WIND BOM_PRES BOM_TNUM BOM_CI BOM_RMW BOM_R34_NE BOM_R34_SE BOM_R34_SW BOM_R34_NW BOM_R50_NE BOM_R50_SE BOM_R50_SW BOM_R50_NW BOM_R64_NE BOM_R64_SE BOM_R64_SW BOM_R64_NW BOM_ROCI BOM_POCI BOM_EYE BOM_POS_METHOD BOM_PRES_METHOD NADI_LAT NADI_LON NADI_CAT NADI_WIND NADI_PRES WELLINGTON_LAT WELLINGTON_LON WELLINGTON_WIND WELLINGTON_PRES DS824_LAT DS824_LON DS824_STAGE DS824_WIND DS824_PRES TD9636_LAT TD9636_LON TD9636_STAGE TD9636_WIND TD9636_PRES TD9635_LAT TD9635_LON TD9635_WIND TD9635_PRES TD9635_ROCI NEUMANN_LAT NEUMANN_LON NEUMANN_CLASS NEUMANN_WIND NEUMANN_PRES MLC_LAT MLC_LON MLC_CLASS MLC_WIND MLC_PRES USA_GUST BOM_GUST BOM_GUST_PER REUNION_GUST REUNION_GUST_PER USA_SEAHGT USA_SEARAD_NE USA_SEARAD_SE USA_SEARAD_SW USA_SEARAD_NW STORM_SPEED STORM_DIR
1996167N16072 1996 42 NI AS NOT_NAMED 1996-06-15 00:00:00 NR 15.6000 72.0000 main 169 165 O_____________ jtwc_io IO041996 15.6000 72.0000 15 -1 3 0
1996167N16072 1996 42 NI AS NOT_NAMED 1996-06-15 03:00:00 NR 15.7500 72.0100 main 159 154 P_____________ IO041996 15.7500 72.0100 15 -1 3 0
1996167N16072 1996 42 NI AS NOT_NAMED 1996-06-15 06:00:00 NR 15.9000 72.0000 main 154 149 O_____________ jtwc_io IO041996 15.9000 72.0000 15 -1 3 351
1996167N16072 1996 42 NI AS NOT_NAMED 1996-06-15 09:00:00 NR 16.0500 71.9575 main 145 145 P_____________ IO041996 16.0500 71.9575 15 -1 3 343
1996167N16072 1996 42 NI AS NOT_NAMED 1996-06-15 12:00:00 NR 16.2000 71.9000 main 153 151 O_____________ jtwc_io IO041996 16.2000 71.9000 15 -1 3 341
1996167N16072 1996 42 NI AS NOT_NAMED 1996-06-15 15:00:00 NR 16.3500 71.8500 main 149 159 P_____________ IO041996 16.3500 71.8500 15 -1 3 343
1996167N16072 1996 42 NI AS NOT_NAMED 1996-06-15 18:00:00 NR 16.5000 71.8000 main 159 159 O_____________ jtwc_io IO041996 16.5000 71.8000 15 -1 3 344
1996167N16072 1996 42 NI AS NOT_NAMED 1996-06-15 21:00:00 NR 16.6425 71.7649 main 159 159 P_____________ IO041996 16.6425 71.7649 20 -1 3 343
1996167N16072 1996 42 NI AS NOT_NAMED 1996-06-16 00:00:00 NR 16.8000 71.7000 main 170 168 O_____________ jtwc_io IO041996 16.8000 71.7000 25 -1 4 333
1996167N16072 1996 42 NI AS NOT_NAMED 1996-06-16 03:00:00 NR 17.0075 71.5725 main 172 172 P_____________ IO041996 17.0075 71.5725 22 -1 5 324
1996167N16072 1996 42 NI AS NOT_NAMED 1996-06-16 06:00:00 NR 17.2000 71.4000 main 185 185 O_____________ jtwc_io IO041996 17.2000 71.4000 20 -1 5 313
1996167N16072 1996 42 NI AS NOT_NAMED 1996-06-16 09:00:00 NR 17.3225 71.2150 main 204 204 P_____________ IO041996 17.3225 71.2150 20 -1 4 298
1996167N16072 1996 42 NI AS NOT_NAMED 1996-06-16 12:00:00 NR 17.4000 71.0000 main 220 220 O_____________ jtwc_io IO041996 17.4000 71.0000 20 -1 4 289
1996167N16072 1996 42 NI AS NOT_NAMED 1996-06-16 15:00:00 NR 17.4648 70.7875 main 235 235 P_____________ IO041996 17.4648 70.7875 22 -1 5 282
1996167N16072 1996 42 NI AS NOT_NAMED 1996-06-16 18:00:00 NR 17.5000 70.5000 main 265 265 O_____________ jtwc_io IO041996 17.5000 70.5000 25 -1 7 273
1996167N16072 1996 42 NI AS NOT_NAMED 1996-06-16 21:00:00 NR 17.5002 70.0499 main 316 316 P_____________ IO041996 17.5002 70.0499 25 -1 9 270
1996167N16072 1996 42 NI AS NOT_NAMED 1996-06-17 00:00:00 NR 17.5000 69.6000 main 358 358 O_____________ jtwc_io IO041996 17.5000 69.6000 25 -1 7 271
1996167N16072 1996 42 NI AS NOT_NAMED 1996-06-17 03:00:00 NR 17.5124 69.2825 main 389 389 P_____________ IO041996 17.5124 69.2825 25 -1 5 282
1996167N16072 1996 42 NI AS NOT_NAMED 1996-06-17 06:00:00 NR 17.6000 69.1000 main 390 370 O_____________ jtwc_io IO041996 17.6000 69.1000 25 -1 3 330
1996167N16072 1996 42 NI AS NOT_NAMED 1996-06-17 09:00:00 NR 17.7679 69.1260 25 990 newdelhi main 370 335 P___O_________ IO041996 17.8349 69.0325 27 -1 17.5000 69.5000 D 25 990 1.50000 5 15
1996167N16072 1996 42 NI AS NOT_NAMED 1996-06-17 12:00:00 NR 18.0667 69.2333 25 988 newdelhi main 335 320 O___O_________ jtwc_io IO041996 18.1000 69.1000 30 -1 18.0000 69.5000 D 25 988 1.50000 5 28
1996167N16072 1996 42 NI AS NOT_NAMED 1996-06-17 15:00:00 NR 18.1676 69.3453 main 320 311 P___P_________ IO041996 18.2575 69.2700 32 -1 18.0476 69.4457 D 27 987 3 62
1996167N16072 1996 42 NI AS NOT_NAMED 1996-06-17 18:00:00 NR 18.2000 69.5000 30 986 newdelhi main 311 267 O___O_________ jtwc_io IO041996 18.4000 69.5000 35 0 18.0000 69.5000 DD 30 986 2.00000 5 53
1996167N16072 1996 42 NI AS NOT_NAMED 1996-06-17 21:00:00 NR 18.4896 69.7928 main 267 224 P___P_________ IO041996 18.5925 69.7000 37 0 18.3867 69.8857 DD 30 986 8 43
1996167N16072 1996 42 NI AS NOT_NAMED 1996-06-18 00:00:00 NR 18.8000 70.1000 30 986 newdelhi main 224 197 O___O_________ jtwc_io IO041996 18.8000 69.9000 40 0 18.8000 70.3000 DD 30 986 2.00000 7 44
1996167N16072 1996 42 NI AS NOT_NAMED 1996-06-18 03:00:00 NR 18.9963 70.3038 30 984 newdelhi main 197 162 P___O_________ IO041996 18.9925 70.1075 42 0 19.0000 70.5000 DD 30 984 2.00000 6 27
1996167N16072 1996 42 NI AS NOT_NAMED 1996-06-18 06:00:00 NR 19.3500 70.4000 30 984 newdelhi main 151 137 O___O_________ jtwc_io IO041996 19.2000 70.3000 45 0 19.5000 70.5000 DD 30 984 2.00000 5 20
1996167N16072 1996 42 NI AS NOT_NAMED 1996-06-18 09:00:00 NR 19.4675 70.4825 35 982 newdelhi main 137 105 P___O_________ IO041996 19.4350 70.4650 50 0 19.5000 70.5000 CS 35 982 2.50000 5 16
1996167N16072 1996 42 NI AS NOT_NAMED 1996-06-18 12:00:00 NR 19.8500 70.5500 45 980 newdelhi main 91 70 O___O_________ jtwc_io IO041996 19.7000 70.6000 55 0 20.0000 70.5000 CS 45 980 3.00000 7 8
1996167N16072 1996 42 NI AS NOT_NAMED 1996-06-18 15:00:00 NR 20.1499 70.5973 main 70 39 P___P_________ IO041996 19.9850 70.7150 60 0 20.3147 70.4796 CS 50 978 6 10
1996167N16072 1996 42 NI AS NOT_NAMED 1996-06-18 18:00:00 NR 20.4000 70.6500 55 976 newdelhi main 35 15 O___O_________ jtwc_io IO041996 20.3000 70.8000 65 1 20.5000 70.5000 SCS 55 976 3.50000 4 10
1996167N16072 1996 42 NI AS NOT_NAMED 1996-06-18 21:00:00 NR 20.5854 70.6841 main 15 0 P___P_________ IO041996 20.6200 70.8502 62 0 20.5507 70.5180 SCS 57 974 5 20
1996167N16072 1996 42 NI AS NOT_NAMED 1996-06-19 00:00:00 NR 20.9000 70.8500 60 972 newdelhi main 0 0 O___O_________ jtwc_io IO041996 21.0000 70.9000 60 0 20.8000 70.8000 SCS 60 972 3.50000 10 30
1996167N16072 1996 42 NI AS NOT_NAMED 1996-06-19 03:00:00 NR 21.4887 71.2425 newdelhi main 0 0 P___O_________ IO041996 21.4775 70.9850 57 0 21.5000 71.5000 CS 0.00000 12 21
1996167N16072 1996 42 NI AS NOT_NAMED 1996-06-19 06:00:00 NR 22.0000 71.3000 newdelhi main 0 0 O___O_________ jtwc_io IO041996 22.0000 71.1000 55 0 22.0000 71.5000 CS 0.00000 9 7
1996167N16072 1996 42 NI AS NOT_NAMED 1996-06-19 09:00:00 NR 22.4081 71.3712 main 0 0 P___P_________ IO041996 22.5150 71.2425 50 0 22.3011 71.5000 CS 8 10
1996167N16072 1996 42 NI AS NOT_NAMED 1996-06-19 12:00:00 NR 22.7500 71.4500 newdelhi main 0 0 O___O_________ jtwc_io IO041996 23.0000 71.4000 45 0 22.5000 71.5000 CS 0.00000 7 12
1996167N16072 1996 42 NI AS NOT_NAMED 1996-06-19 15:00:00 NR 23.0862 71.5251 main 0 0 P___P_________ IO041996 23.4225 71.5501 40 0 22.7500 71.5000 CS 7 12
1996167N16072 1996 42 NI AS NOT_NAMED 1996-06-19 18:00:00 NR 23.4000 71.6000 newdelhi main 0 0 O___O_________ jtwc_io IO041996 23.8000 71.7000 35 0 23.0000 71.5000 DD 0.00000 6 14
1996167N16072 1996 42 NI AS NOT_NAMED 1996-06-19 21:00:00 NR 23.6615 71.6788 main 0 0 P___P_________ IO041996 24.1650 71.8575 32 -1 23.1580 71.5000 DD 7 14
1996167N16072 1996 42 NI AS NOT_NAMED 1996-06-20 00:00:00 NR 24.0714 71.7857 newdelhi main 0 0 O___O_________ jtwc_io IO041996 24.5000 72.0000 30 -1 23.5000 71.5000 D 0.00000 10 12
1996167N16072 1996 42 NI AS NOT_NAMED 1996-06-20 03:00:00 NR 24.6100 71.9051 newdelhi main 0 0 P___O_________ IO041996 24.8150 72.1076 30 -1 24.2000 71.5000 D 0.00000 9 15
1996167N16072 1996 42 NI AS NOT_NAMED 1996-06-20 06:00:00 NR 24.9800 72.0600 newdelhi main 0 0 O___O_________ jtwc_io IO041996 25.1000 72.2000 30 -1 24.5000 71.5000 D 0.00000 8 25
1996167N16072 1996 42 NI AS NOT_NAMED 1996-06-20 09:00:00 NR 25.3650 72.3000 main 0 0 P_____________ IO041996 25.3650 72.3000 27 -1 7 26
1996167N16072 1996 42 NI AS NOT_NAMED 1996-06-20 12:00:00 NR 25.6000 72.4000 main 0 0 O_____________ jtwc_io IO041996 25.6000 72.4000 25 -1 5 21
1996167N16072 1996 42 NI AS NOT_NAMED 1996-06-20 15:00:00 NR 25.8150 72.4926 main 0 0 P_____________ IO041996 25.8150 72.4926 25 -1 4 24
1996167N16072 1996 42 NI AS NOT_NAMED 1996-06-20 18:00:00 NR 26.0000 72.6000 main 0 0 O_____________ jtwc_io IO041996 26.0000 72.6000 25 -1 4 33
1996167N16072 1996 42 NI AS NOT_NAMED 1996-06-20 21:00:00 NR 26.1575 72.7425 main 0 0 P_____________ IO041996 26.1575 72.7425 25 -1 4 42
1996167N16072 1996 42 NI AS NOT_NAMED 1996-06-21 00:00:00 NR 26.3000 72.9000 main 0 0 O_____________ jtwc_io IO041996 26.3000 72.9000 25 -1 4 44
1996167N16072 1996 42 NI AS NOT_NAMED 1996-06-21 03:00:00 NR 26.4500 73.0500 main 0 0 P_____________ IO041996 26.4500 73.0500 25 -1 4 42
1996167N16072 1996 42 NI AS NOT_NAMED 1996-06-21 06:00:00 NR 26.6000 73.2000 main 0 0 O_____________ jtwc_io IO041996 26.6000 73.2000 25 -1 4 41
1996167N16072 1996 42 NI AS NOT_NAMED 1996-06-21 09:00:00 NR 26.7575 73.3500 main 0 0 P_____________ IO041996 26.7575 73.3500 25 -1 4 42
1996167N16072 1996 42 NI AS NOT_NAMED 1996-06-21 12:00:00 NR 26.9000 73.5000 main 0 0 O_____________ jtwc_io IO041996 26.9000 73.5000 25 -1 4 47
1996167N16072 1996 42 NI AS NOT_NAMED 1996-06-21 15:00:00 NR 27.0075 73.6501 main 0 0 P_____________ IO041996 27.0075 73.6501 25 -1 3 53
1996167N16072 1996 42 NI AS NOT_NAMED 1996-06-21 18:00:00 NR 27.1000 73.8000 main 0 0 O_____________ jtwc_io IO041996 27.1000 73.8000 25 -1 3 54
1996167N16072 1996 42 NI AS NOT_NAMED 1996-06-21 21:00:00 NR 27.2000 73.9500 main 0 0 P_____________ IO041996 27.2000 73.9500 25 -1 3 53
1996167N16072 1996 42 NI AS NOT_NAMED 1996-06-22 00:00:00 NR 27.3000 74.1000 main 0 0 O_____________ jtwc_io IO041996 27.3000 74.1000 25 -1 3 53
1996167N16072 1996 42 NI AS NOT_NAMED 1996-06-22 03:00:00 NR 27.4000 74.2425 main 0 0 P_____________ IO041996 27.4000 74.2425 25 -1 3 53
1996167N16072 1996 42 NI AS NOT_NAMED 1996-06-22 06:00:00 NR 27.5000 74.4000 main 0 0 O_____________ jtwc_io IO041996 27.5000 74.4000 25 -1 4 58
1996167N16072 1996 42 NI AS NOT_NAMED 1996-06-22 09:00:00 NR 27.6000 74.6000 main 0 0 P_____________ IO041996 27.6000 74.6000 25 -1 4 61
1996167N16072 1996 42 NI AS NOT_NAMED 1996-06-22 12:00:00 NR 27.7000 74.8000 main 0 0 O_____________ jtwc_io IO041996 27.7000 74.8000 25 -1 4 58
1996167N16072 1996 42 NI AS NOT_NAMED 1996-06-22 15:00:00 NR 27.8000 74.9576 main 0 0 P_____________ IO041996 27.8000 74.9576 25 -1 3 53
1996167N16072 1996 42 NI AS NOT_NAMED 1996-06-22 18:00:00 NR 27.9000 75.1000 main 0 0 O_____________ jtwc_io IO041996 27.9000 75.1000 25 -1 3 52
1996167N16072 1996 42 NI AS NOT_NAMED 1996-06-22 21:00:00 NR 28.0000 75.2425 main 0 0 P_____________ IO041996 28.0000 75.2425 22 -1 3 53
1996167N16072 1996 42 NI AS NOT_NAMED 1996-06-23 00:00:00 NR 28.1000 75.4000 main 0 0 O_____________ jtwc_io IO041996 28.1000 75.4000 20 -1 4 58
1996167N16072 1996 42 NI AS NOT_NAMED 1996-06-23 03:00:00 NR 28.2000 75.6000 main 0 0 P_____________ IO041996 28.2000 75.6000 20 -1 4 60
1996167N16072 1996 42 NI AS NOT_NAMED 1996-06-23 06:00:00 NR 28.3000 75.8000 main 0 0 O_____________ jtwc_io IO041996 28.3000 75.8000 20 -1 4 58
1996167N16072 1996 42 NI AS NOT_NAMED 1996-06-23 09:00:00 NR 28.4000 75.9576 main 0 0 P_____________ IO041996 28.4000 75.9576 20 -1 3 53
1996167N16072 1996 42 NI AS NOT_NAMED 1996-06-23 12:00:00 NR 28.5000 76.1000 main 0 0 O_____________ jtwc_io IO041996 28.5000 76.1000 20 -1 3 52
1996167N16072 1996 42 NI AS NOT_NAMED 1996-06-23 15:00:00 NR 28.6000 76.2500 main 0 0 P_____________ IO041996 28.6000 76.2500 20 -1 3 53
1996167N16072 1996 42 NI AS NOT_NAMED 1996-06-23 18:00:00 NR 28.7000 76.4000 main 0 0 O_____________ jtwc_io IO041996 28.7000 76.4000 20 -1 3 53
1996167N16072 1996 42 NI AS NOT_NAMED 1996-06-23 21:00:00 NR 28.8000 76.5500 main 0 0 P_____________ IO041996 28.8000 76.5500 20 -1 3 53
1996167N16072 1996 42 NI AS NOT_NAMED 1996-06-24 00:00:00 NR 28.9000 76.7000 main 0 0 O_____________ jtwc_io IO041996 28.9000 76.7000 20 -1 3 52
1996167N16072 1996 42 NI AS NOT_NAMED 1996-06-24 03:00:00 NR 29.0075 76.8500 main 0 0 P_____________ IO041996 29.0075 76.8500 20 -1 3 53
1996167N16072 1996 42 NI AS NOT_NAMED 1996-06-24 06:00:00 NR 29.1000 77.0000 main 0 0 O_____________ jtwc_io IO041996 29.1000 77.0000 20 -1 3 61
1996167N16072 1996 42 NI AS NOT_NAMED 1996-06-24 09:00:00 NR 29.1500 77.1426 main 0 0 P_____________ IO041996 29.1500 77.1426 17 -1 3 69
1996167N16072 1996 42 NI AS NOT_NAMED 1996-06-24 12:00:00 NR 29.2000 77.3000 main 0 0 O_____________ jtwc_io IO041996 29.2000 77.3000 15 -1 3 64
1996167N16072 1996 42 NI AS NOT_NAMED 1996-06-24 15:00:00 NR 29.3000 77.4924 main 0 0 P_____________ IO041996 29.3000 77.4924 15 -1 4 60
1996167N16072 1996 42 NI AS NOT_NAMED 1996-06-24 18:00:00 NR 29.4000 77.7000 main 0 0 O_____________ jtwc_io IO041996 29.4000 77.7000 15 -1 4 66
1996167N16072 1996 42 NI AS NOT_NAMED 1996-06-24 21:00:00 NR 29.4574 77.8926 main 0 0 P_____________ IO041996 29.4574 77.8926 15 -1 4 74
1996167N16072 1996 42 NI BB NOT_NAMED 1996-06-25 00:00:00 NR 29.5000 78.1000 main 0 0 O_____________ jtwc_io IO041996 29.5000 78.1000 15 -1 4 76
1996167N16072 1996 42 NI BB NOT_NAMED 1996-06-25 03:00:00 NR 29.5499 78.3350 main 0 0 P_____________ IO041996 29.5499 78.3350 15 -1 4 77
1996167N16072 1996 42 NI BB NOT_NAMED 1996-06-25 06:00:00 NR 29.6000 78.6000 main 0 0 O_____________ jtwc_io IO041996 29.6000 78.6000 15 -1 5 78
1996167N16072 1996 42 NI BB NOT_NAMED 1996-06-25 09:00:00 NR 29.6502 78.8924 main 0 0 P_____________ IO041996 29.6502 78.8924 15 -1 5 79
1996167N16072 1996 42 NI BB NOT_NAMED 1996-06-25 12:00:00 NR 29.7000 79.2000 main 0 O_____________ jtwc_io IO041996 29.7000 79.2000 15 -1 5 80

IBTrACS Databaseについて

本データベースは、米国NOAAが公開する1842年以降の世界の熱帯低気圧のベストトラックデータアーカイブInternational Best Track Archive for Climate Stewardship (IBTrACS)を、ウェブで閲覧しやすい形式に変換したものです。

最終更新日:2021-11-26